sensor_id;sensor_type;location;lat;lon;timestamp;P1;durP1;ratioP1;P2;durP2;ratioP2
13704;SDS011;6924;52.122;9.952;2023-04-01T00:02:19;4.73;;;0.73;;
13704;SDS011;6924;52.122;9.952;2023-04-01T00:04:46;1.10;;;0.40;;
13704;SDS011;6924;52.122;9.952;2023-04-01T00:07:13;2.20;;;0.90;;
13704;SDS011;6924;52.122;9.952;2023-04-01T00:09:40;1.10;;;0.60;;
13704;SDS011;6924;52.122;9.952;2023-04-01T00:12:06;3.20;;;0.70;;
13704;SDS011;6924;52.122;9.952;2023-04-01T00:14:33;2.40;;;0.70;;
13704;SDS011;6924;52.122;9.952;2023-04-01T00:17:02;1.50;;;0.50;;
13704;SDS011;6924;52.122;9.952;2023-04-01T00:19:28;2.13;;;0.70;;
13704;SDS011;6924;52.122;9.952;2023-04-01T00:21:55;1.30;;;0.60;;
13704;SDS011;6924;52.122;9.952;2023-04-01T00:24:24;2.07;;;0.63;;
13704;SDS011;6924;52.122;9.952;2023-04-01T00:26:51;1.67;;;0.43;;
13704;SDS011;6924;52.122;9.952;2023-04-01T00:29:17;2.20;;;0.50;;
13704;SDS011;6924;52.122;9.952;2023-04-01T00:31:43;1.73;;;0.47;;
13704;SDS011;6924;52.122;9.952;2023-04-01T00:34:10;2.03;;;0.53;;
13704;SDS011;6924;52.122;9.952;2023-04-01T00:36:38;0.87;;;0.40;;
13704;SDS011;6924;52.122;9.952;2023-04-01T00:39:04;3.23;;;0.50;;
13704;SDS011;6924;52.122;9.952;2023-04-01T00:41:32;1.23;;;0.50;;
13704;SDS011;6924;52.122;9.952;2023-04-01T00:46:47;1.47;;;0.30;;
13704;SDS011;6924;52.122;9.952;2023-04-01T00:49:14;2.73;;;0.60;;
13704;SDS011;6924;52.122;9.952;2023-04-01T00:51:44;1.50;;;0.40;;
13704;SDS011;6924;52.122;9.952;2023-04-01T00:54:13;2.07;;;0.50;;
13704;SDS011;6924;52.122;9.952;2023-04-01T00:56:45;1.07;;;0.30;;
13704;SDS011;6924;52.122;9.952;2023-04-01T00:59:15;0.40;;;0.40;;
13704;SDS011;6924;52.122;9.952;2023-04-01T01:01:45;2.03;;;0.30;;
13704;SDS011;6924;52.122;9.952;2023-04-01T01:04:20;0.90;;;0.37;;
13704;SDS011;6924;52.122;9.952;2023-04-01T01:06:49;2.10;;;0.67;;
13704;SDS011;6924;52.122;9.952;2023-04-01T01:09:27;0.93;;;0.37;;
13704;SDS011;6924;52.122;9.952;2023-04-01T01:12:03;1.13;;;0.70;;
13704;SDS011;6924;52.122;9.952;2023-04-01T01:14:36;2.83;;;0.40;;
13704;SDS011;6924;52.122;9.952;2023-04-01T01:17:12;1.80;;;0.40;;
13704;SDS011;6924;52.122;9.952;2023-04-01T01:19:49;1.43;;;0.47;;
13704;SDS011;6924;52.122;9.952;2023-04-01T01:22:31;1.30;;;0.50;;
13704;SDS011;6924;52.122;9.952;2023-04-01T01:25:09;1.10;;;0.30;;
13704;SDS011;6924;52.122;9.952;2023-04-01T01:27:47;1.23;;;0.40;;
13704;SDS011;6924;52.122;9.952;2023-04-01T01:30:24;0.33;;;0.33;;
13704;SDS011;6924;52.122;9.952;2023-04-01T01:33:17;2.33;;;0.60;;
13704;SDS011;6924;52.122;9.952;2023-04-01T01:35:59;0.33;;;0.33;;
13704;SDS011;6924;52.122;9.952;2023-04-01T01:38:31;2.00;;;0.50;;
13704;SDS011;6924;52.122;9.952;2023-04-01T01:41:00;2.10;;;0.40;;
13704;SDS011;6924;52.122;9.952;2023-04-01T01:43:29;0.70;;;0.57;;
13704;SDS011;6924;52.122;9.952;2023-04-01T01:45:59;3.27;;;0.70;;
13704;SDS011;6924;52.122;9.952;2023-04-01T01:48:29;2.37;;;0.60;;
13704;SDS011;6924;52.122;9.952;2023-04-01T01:51:00;1.50;;;0.50;;
13704;SDS011;6924;52.122;9.952;2023-04-01T01:53:26;1.23;;;0.53;;
13704;SDS011;6924;52.122;9.952;2023-04-01T01:55:53;1.90;;;0.30;;
13704;SDS011;6924;52.122;9.952;2023-04-01T01:58:20;2.03;;;0.30;;
13704;SDS011;6924;52.122;9.952;2023-04-01T02:00:50;1.90;;;0.40;;
13704;SDS011;6924;52.122;9.952;2023-04-01T02:03:19;0.90;;;0.40;;
13704;SDS011;6924;52.122;9.952;2023-04-01T02:05:49;1.33;;;0.80;;
13704;SDS011;6924;52.122;9.952;2023-04-01T02:08:19;1.97;;;0.40;;
13704;SDS011;6924;52.122;9.952;2023-04-01T02:10:53;0.60;;;0.50;;
13704;SDS011;6924;52.122;9.952;2023-04-01T02:13:24;0.30;;;0.30;;
13704;SDS011;6924;52.122;9.952;2023-04-01T02:15:57;1.50;;;0.50;;
13704;SDS011;6924;52.122;9.952;2023-04-01T02:18:27;2.57;;;0.40;;
13704;SDS011;6924;52.122;9.952;2023-04-01T02:20:56;2.30;;;0.53;;
13704;SDS011;6924;52.122;9.952;2023-04-01T02:23:26;1.40;;;0.50;;
13704;SDS011;6924;52.122;9.952;2023-04-01T02:25:54;1.70;;;0.40;;
13704;SDS011;6924;52.122;9.952;2023-04-01T02:28:21;0.63;;;0.40;;
13704;SDS011;6924;52.122;9.952;2023-04-01T02:30:50;3.77;;;0.57;;
13704;SDS011;6924;52.122;9.952;2023-04-01T02:33:18;1.40;;;0.50;;
13704;SDS011;6924;52.122;9.952;2023-04-01T02:35:45;1.47;;;0.50;;
13704;SDS011;6924;52.122;9.952;2023-04-01T02:38:12;1.20;;;0.50;;
13704;SDS011;6924;52.122;9.952;2023-04-01T02:40:43;2.30;;;0.50;;
13704;SDS011;6924;52.122;9.952;2023-04-01T02:43:11;2.53;;;0.80;;
13704;SDS011;6924;52.122;9.952;2023-04-01T02:45:38;2.40;;;1.40;;
13704;SDS011;6924;52.122;9.952;2023-04-01T02:48:04;2.23;;;0.90;;
13704;SDS011;6924;52.122;9.952;2023-04-01T02:50:31;1.37;;;0.80;;
13704;SDS011;6924;52.122;9.952;2023-04-01T02:52:57;1.80;;;0.87;;
13704;SDS011;6924;52.122;9.952;2023-04-01T02:55:24;1.20;;;0.50;;
13704;SDS011;6924;52.122;9.952;2023-04-01T02:57:52;1.03;;;0.40;;
13704;SDS011;6924;52.122;9.952;2023-04-01T03:00:18;1.57;;;0.50;;
13704;SDS011;6924;52.122;9.952;2023-04-01T03:02:45;3.30;;;0.80;;
13704;SDS011;6924;52.122;9.952;2023-04-01T03:05:11;2.93;;;0.80;;
13704;SDS011;6924;52.122;9.952;2023-04-01T03:07:38;1.63;;;0.60;;
13704;SDS011;6924;52.122;9.952;2023-04-01T03:10:05;0.40;;;0.30;;
13704;SDS011;6924;52.122;9.952;2023-04-01T03:12:32;2.17;;;0.60;;
13704;SDS011;6924;52.122;9.952;2023-04-01T03:15:00;2.57;;;0.60;;
13704;SDS011;6924;52.122;9.952;2023-04-01T03:17:26;2.20;;;0.47;;
13704;SDS011;6924;52.122;9.952;2023-04-01T03:19:53;1.73;;;0.73;;
13704;SDS011;6924;52.122;9.952;2023-04-01T03:22:19;1.00;;;0.40;;
13704;SDS011;6924;52.122;9.952;2023-04-01T03:24:46;0.90;;;0.50;;
13704;SDS011;6924;52.122;9.952;2023-04-01T03:27:12;0.67;;;0.40;;
13704;SDS011;6924;52.122;9.952;2023-04-01T03:29:39;2.00;;;0.47;;
13704;SDS011;6924;52.122;9.952;2023-04-01T03:32:07;2.60;;;0.60;;
13704;SDS011;6924;52.122;9.952;2023-04-01T03:34:34;2.27;;;0.87;;
13704;SDS011;6924;52.122;9.952;2023-04-01T03:37:00;0.97;;;0.50;;
13704;SDS011;6924;52.122;9.952;2023-04-01T03:39:26;1.50;;;0.70;;
13704;SDS011;6924;52.122;9.952;2023-04-01T03:41:53;1.10;;;0.40;;
13704;SDS011;6924;52.122;9.952;2023-04-01T03:44:19;1.70;;;0.53;;
13704;SDS011;6924;52.122;9.952;2023-04-01T03:46:46;1.67;;;0.50;;
13704;SDS011;6924;52.122;9.952;2023-04-01T03:49:13;3.40;;;0.60;;
13704;SDS011;6924;52.122;9.952;2023-04-01T03:51:40;1.00;;;0.40;;
13704;SDS011;6924;52.122;9.952;2023-04-01T03:54:08;1.27;;;0.50;;
13704;SDS011;6924;52.122;9.952;2023-04-01T03:56:34;1.47;;;0.57;;
13704;SDS011;6924;52.122;9.952;2023-04-01T03:59:02;0.90;;;0.30;;
13704;SDS011;6924;52.122;9.952;2023-04-01T04:01:30;2.47;;;0.70;;
13704;SDS011;6924;52.122;9.952;2023-04-01T04:03:56;1.40;;;0.50;;
13704;SDS011;6924;52.122;9.952;2023-04-01T04:06:24;1.97;;;0.60;;
13704;SDS011;6924;52.122;9.952;2023-04-01T04:08:51;0.70;;;0.60;;
13704;SDS011;6924;52.122;9.952;2023-04-01T04:11:18;0.97;;;0.50;;
13704;SDS011;6924;52.122;9.952;2023-04-01T04:13:45;3.57;;;0.90;;
13704;SDS011;6924;52.122;9.952;2023-04-01T04:16:12;1.67;;;0.60;;
13704;SDS011;6924;52.122;9.952;2023-04-01T04:18:39;1.27;;;0.70;;
13704;SDS011;6924;52.122;9.952;2023-04-01T04:21:06;2.20;;;0.87;;
13704;SDS011;6924;52.122;9.952;2023-04-01T04:23:33;1.80;;;0.70;;
13704;SDS011;6924;52.122;9.952;2023-04-01T04:26:03;1.60;;;0.60;;
13704;SDS011;6924;52.122;9.952;2023-04-01T04:28:31;0.93;;;0.70;;
13704;SDS011;6924;52.122;9.952;2023-04-01T04:30:58;1.60;;;0.40;;
13704;SDS011;6924;52.122;9.952;2023-04-01T04:33:25;2.70;;;0.87;;
13704;SDS011;6924;52.122;9.952;2023-04-01T04:35:54;2.10;;;0.77;;
13704;SDS011;6924;52.122;9.952;2023-04-01T04:38:22;1.97;;;0.50;;
13704;SDS011;6924;52.122;9.952;2023-04-01T04:40:50;0.73;;;0.43;;
13704;SDS011;6924;52.122;9.952;2023-04-01T04:43:16;2.93;;;0.70;;
13704;SDS011;6924;52.122;9.952;2023-04-01T04:45:44;1.60;;;0.70;;
13704;SDS011;6924;52.122;9.952;2023-04-01T04:48:11;2.57;;;1.37;;
13704;SDS011;6924;52.122;9.952;2023-04-01T04:50:43;1.60;;;0.50;;
13704;SDS011;6924;52.122;9.952;2023-04-01T04:53:10;1.10;;;1.00;;
13704;SDS011;6924;52.122;9.952;2023-04-01T04:55:37;1.37;;;0.90;;
13704;SDS011;6924;52.122;9.952;2023-04-01T04:58:05;1.63;;;0.80;;
13704;SDS011;6924;52.122;9.952;2023-04-01T05:00:31;1.03;;;0.50;;
13704;SDS011;6924;52.122;9.952;2023-04-01T05:02:58;6.20;;;0.90;;
13704;SDS011;6924;52.122;9.952;2023-04-01T05:05:24;3.57;;;0.97;;
13704;SDS011;6924;52.122;9.952;2023-04-01T05:07:51;1.30;;;1.13;;
13704;SDS011;6924;52.122;9.952;2023-04-01T05:10:17;2.23;;;0.70;;
13704;SDS011;6924;52.122;9.952;2023-04-01T05:12:45;2.50;;;0.80;;
13704;SDS011;6924;52.122;9.952;2023-04-01T05:15:13;2.50;;;0.90;;
13704;SDS011;6924;52.122;9.952;2023-04-01T05:17:40;1.77;;;0.80;;
13704;SDS011;6924;52.122;9.952;2023-04-01T05:20:06;2.93;;;1.50;;
13704;SDS011;6924;52.122;9.952;2023-04-01T05:22:33;3.53;;;0.80;;
13704;SDS011;6924;52.122;9.952;2023-04-01T05:25:00;1.57;;;0.90;;
13704;SDS011;6924;52.122;9.952;2023-04-01T05:27:26;2.37;;;0.77;;
13704;SDS011;6924;52.122;9.952;2023-04-01T05:29:52;2.00;;;1.07;;
13704;SDS011;6924;52.122;9.952;2023-04-01T05:32:20;2.60;;;0.97;;
13704;SDS011;6924;52.122;9.952;2023-04-01T05:34:49;0.63;;;0.53;;
13704;SDS011;6924;52.122;9.952;2023-04-01T05:37:16;1.37;;;0.77;;
13704;SDS011;6924;52.122;9.952;2023-04-01T05:39:43;1.23;;;0.60;;
13704;SDS011;6924;52.122;9.952;2023-04-01T05:42:09;1.73;;;0.73;;
13704;SDS011;6924;52.122;9.952;2023-04-01T05:44:35;1.53;;;0.90;;
13704;SDS011;6924;52.122;9.952;2023-04-01T05:47:03;3.20;;;1.00;;
13704;SDS011;6924;52.122;9.952;2023-04-01T05:49:32;1.67;;;0.77;;
13704;SDS011;6924;52.122;9.952;2023-04-01T05:51:59;1.63;;;1.00;;
13704;SDS011;6924;52.122;9.952;2023-04-01T05:54:26;1.67;;;0.77;;
13704;SDS011;6924;52.122;9.952;2023-04-01T05:56:54;3.53;;;0.57;;
13704;SDS011;6924;52.122;9.952;2023-04-01T05:59:21;3.33;;;0.70;;
13704;SDS011;6924;52.122;9.952;2023-04-01T06:01:47;2.80;;;0.70;;
13704;SDS011;6924;52.122;9.952;2023-04-01T06:04:14;1.10;;;0.60;;
13704;SDS011;6924;52.122;9.952;2023-04-01T06:06:43;2.77;;;1.17;;
13704;SDS011;6924;52.122;9.952;2023-04-01T06:09:12;0.90;;;0.67;;
13704;SDS011;6924;52.122;9.952;2023-04-01T06:11:43;3.00;;;0.87;;
13704;SDS011;6924;52.122;9.952;2023-04-01T06:14:23;1.80;;;0.83;;
13704;SDS011;6924;52.122;9.952;2023-04-01T06:17:06;1.87;;;0.90;;
13704;SDS011;6924;52.122;9.952;2023-04-01T06:19:46;1.73;;;0.70;;
13704;SDS011;6924;52.122;9.952;2023-04-01T06:25:31;2.97;;;0.77;;
13704;SDS011;6924;52.122;9.952;2023-04-01T06:28:25;1.63;;;0.70;;
13704;SDS011;6924;52.122;9.952;2023-04-01T06:31:10;1.17;;;0.90;;
13704;SDS011;6924;52.122;9.952;2023-04-01T06:33:47;3.67;;;1.00;;
13704;SDS011;6924;52.122;9.952;2023-04-01T06:36:28;0.90;;;0.40;;
13704;SDS011;6924;52.122;9.952;2023-04-01T06:39:13;3.63;;;0.63;;
13704;SDS011;6924;52.122;9.952;2023-04-01T06:41:52;1.20;;;0.43;;
13704;SDS011;6924;52.122;9.952;2023-04-01T06:44:33;1.30;;;0.77;;
13704;SDS011;6924;52.122;9.952;2023-04-01T06:47:14;2.73;;;0.57;;
13704;SDS011;6924;52.122;9.952;2023-04-01T06:49:51;1.70;;;0.80;;
13704;SDS011;6924;52.122;9.952;2023-04-01T06:52:25;1.13;;;0.57;;
13704;SDS011;6924;52.122;9.952;2023-04-01T06:55:02;1.73;;;0.63;;
13704;SDS011;6924;52.122;9.952;2023-04-01T06:57:42;1.93;;;0.50;;
13704;SDS011;6924;52.122;9.952;2023-04-01T07:00:13;1.73;;;0.67;;
13704;SDS011;6924;52.122;9.952;2023-04-01T07:02:44;3.03;;;0.80;;
13704;SDS011;6924;52.122;9.952;2023-04-01T07:05:18;5.30;;;0.70;;
13704;SDS011;6924;52.122;9.952;2023-04-01T07:07:46;3.03;;;0.47;;
13704;SDS011;6924;52.122;9.952;2023-04-01T07:10:19;0.90;;;0.37;;
13704;SDS011;6924;52.122;9.952;2023-04-01T07:12:49;1.40;;;0.60;;
13704;SDS011;6924;52.122;9.952;2023-04-01T07:15:19;1.73;;;0.50;;
13704;SDS011;6924;52.122;9.952;2023-04-01T07:17:52;1.40;;;0.60;;
13704;SDS011;6924;52.122;9.952;2023-04-01T07:20:22;2.83;;;0.93;;
13704;SDS011;6924;52.122;9.952;2023-04-01T07:22:52;1.20;;;0.30;;
13704;SDS011;6924;52.122;9.952;2023-04-01T07:25:24;0.50;;;0.50;;
13704;SDS011;6924;52.122;9.952;2023-04-01T07:27:54;2.07;;;0.70;;
13704;SDS011;6924;52.122;9.952;2023-04-01T07:30:25;0.67;;;0.43;;
13704;SDS011;6924;52.122;9.952;2023-04-01T07:33:00;1.50;;;0.80;;
13704;SDS011;6924;52.122;9.952;2023-04-01T07:35:33;0.77;;;0.40;;
13704;SDS011;6924;52.122;9.952;2023-04-01T07:38:08;1.13;;;0.60;;
13704;SDS011;6924;52.122;9.952;2023-04-01T07:40:47;1.23;;;0.50;;
13704;SDS011;6924;52.122;9.952;2023-04-01T07:43:32;1.60;;;0.73;;
13704;SDS011;6924;52.122;9.952;2023-04-01T07:46:12;0.83;;;0.40;;
13704;SDS011;6924;52.122;9.952;2023-04-01T07:48:49;1.30;;;0.40;;
13704;SDS011;6924;52.122;9.952;2023-04-01T07:51:24;0.67;;;0.30;;
13704;SDS011;6924;52.122;9.952;2023-04-01T07:53:59;1.43;;;0.60;;
13704;SDS011;6924;52.122;9.952;2023-04-01T07:56:35;0.80;;;0.50;;
13704;SDS011;6924;52.122;9.952;2023-04-01T07:59:11;1.03;;;0.50;;
13704;SDS011;6924;52.122;9.952;2023-04-01T08:01:48;2.03;;;0.50;;
13704;SDS011;6924;52.122;9.952;2023-04-01T08:04:23;1.33;;;0.90;;
13704;SDS011;6924;52.122;9.952;2023-04-01T08:06:58;1.30;;;0.53;;
13704;SDS011;6924;52.122;9.952;2023-04-01T08:09:30;1.10;;;0.40;;
13704;SDS011;6924;52.122;9.952;2023-04-01T08:12:07;1.90;;;0.50;;
13704;SDS011;6924;52.122;9.952;2023-04-01T08:14:45;0.90;;;0.30;;
13704;SDS011;6924;52.122;9.952;2023-04-01T08:17:23;1.50;;;0.60;;
13704;SDS011;6924;52.122;9.952;2023-04-01T08:20:02;0.90;;;0.53;;
13704;SDS011;6924;52.122;9.952;2023-04-01T08:22:41;1.30;;;0.60;;
13704;SDS011;6924;52.122;9.952;2023-04-01T08:25:13;0.40;;;0.40;;
13704;SDS011;6924;52.122;9.952;2023-04-01T08:27:47;0.30;;;0.30;;
13704;SDS011;6924;52.122;9.952;2023-04-01T08:30:18;0.47;;;0.40;;
13704;SDS011;6924;52.122;9.952;2023-04-01T08:32:47;0.90;;;0.50;;
13704;SDS011;6924;52.122;9.952;2023-04-01T08:35:23;0.70;;;0.20;;
13704;SDS011;6924;52.122;9.952;2023-04-01T08:37:53;1.90;;;0.40;;
13704;SDS011;6924;52.122;9.952;2023-04-01T08:40:39;0.80;;;0.50;;
13704;SDS011;6924;52.122;9.952;2023-04-01T08:43:35;0.40;;;0.30;;
13704;SDS011;6924;52.122;9.952;2023-04-01T08:46:42;0.70;;;0.37;;
13704;SDS011;6924;52.122;9.952;2023-04-01T08:49:27;1.93;;;0.47;;
13704;SDS011;6924;52.122;9.952;2023-04-01T08:52:15;2.63;;;0.50;;
13704;SDS011;6924;52.122;9.952;2023-04-01T08:54:54;1.07;;;0.30;;
13704;SDS011;6924;52.122;9.952;2023-04-01T08:57:35;0.63;;;0.40;;
13704;SDS011;6924;52.122;9.952;2023-04-01T09:00:16;1.17;;;0.60;;
13704;SDS011;6924;52.122;9.952;2023-04-01T09:02:56;1.17;;;0.33;;
13704;SDS011;6924;52.122;9.952;2023-04-01T09:05:36;1.07;;;0.40;;
13704;SDS011;6924;52.122;9.952;2023-04-01T09:08:27;1.63;;;0.30;;
13704;SDS011;6924;52.122;9.952;2023-04-01T09:11:16;1.37;;;0.40;;
13704;SDS011;6924;52.122;9.952;2023-04-01T09:13:59;0.77;;;0.70;;
13704;SDS011;6924;52.122;9.952;2023-04-01T09:16:42;0.97;;;0.40;;
13704;SDS011;6924;52.122;9.952;2023-04-01T09:19:26;1.30;;;0.50;;
13704;SDS011;6924;52.122;9.952;2023-04-01T09:25:15;1.67;;;0.50;;
13704;SDS011;6924;52.122;9.952;2023-04-01T09:27:54;1.07;;;0.40;;
13704;SDS011;6924;52.122;9.952;2023-04-01T09:36:43;0.63;;;0.30;;
13704;SDS011;6924;52.122;9.952;2023-04-01T09:42:14;1.33;;;0.33;;
13704;SDS011;6924;52.122;9.952;2023-04-01T09:44:48;0.77;;;0.30;;
13704;SDS011;6924;52.122;9.952;2023-04-01T09:47:25;0.93;;;0.37;;
13704;SDS011;6924;52.122;9.952;2023-04-01T09:53:04;1.43;;;0.30;;
13704;SDS011;6924;52.122;9.952;2023-04-01T09:59:06;0.60;;;0.60;;
13704;SDS011;6924;52.122;9.952;2023-04-01T10:02:10;0.27;;;0.20;;
13704;SDS011;6924;52.122;9.952;2023-04-01T10:05:17;1.63;;;0.30;;
13704;SDS011;6924;52.122;9.952;2023-04-01T10:08:20;1.03;;;0.60;;
13704;SDS011;6924;52.122;9.952;2023-04-01T10:11:12;0.97;;;0.43;;
13704;SDS011;6924;52.122;9.952;2023-04-01T10:20:08;0.50;;;0.37;;
13704;SDS011;6924;52.122;9.952;2023-04-01T10:22:51;0.40;;;0.33;;
13704;SDS011;6924;52.122;9.952;2023-04-01T10:25:46;0.20;;;0.20;;
13704;SDS011;6924;52.122;9.952;2023-04-01T10:31:28;0.27;;;0.27;;
13704;SDS011;6924;52.122;9.952;2023-04-01T10:37:07;1.13;;;0.30;;
13704;SDS011;6924;52.122;9.952;2023-04-01T10:43:13;1.03;;;0.30;;
13704;SDS011;6924;52.122;9.952;2023-04-01T10:49:10;1.13;;;0.40;;
13704;SDS011;6924;52.122;9.952;2023-04-01T10:55:19;0.40;;;0.27;;
13704;SDS011;6924;52.122;9.952;2023-04-01T10:58:22;0.30;;;0.20;;
13704;SDS011;6924;52.122;9.952;2023-04-01T11:10:25;0.40;;;0.20;;
13704;SDS011;6924;52.122;9.952;2023-04-01T11:13:26;1.07;;;0.40;;
13704;SDS011;6924;52.122;9.952;2023-04-01T11:16:29;0.17;;;0.10;;
13704;SDS011;6924;52.122;9.952;2023-04-01T11:19:32;0.70;;;0.50;;
13704;SDS011;6924;52.122;9.952;2023-04-01T11:22:18;0.20;;;0.10;;
13704;SDS011;6924;52.122;9.952;2023-04-01T11:25:07;0.63;;;0.23;;
13704;SDS011;6924;52.122;9.952;2023-04-01T11:27:44;0.43;;;0.23;;
13704;SDS011;6924;52.122;9.952;2023-04-01T11:30:32;1.13;;;0.30;;
13704;SDS011;6924;52.122;9.952;2023-04-01T11:33:07;0.10;;;0.10;;
13704;SDS011;6924;52.122;9.952;2023-04-01T11:38:42;0.57;;;0.20;;
13704;SDS011;6924;52.122;9.952;2023-04-01T11:41:22;0.53;;;0.30;;
13704;SDS011;6924;52.122;9.952;2023-04-01T11:44:02;0.20;;;0.20;;
13704;SDS011;6924;52.122;9.952;2023-04-01T11:46:41;0.30;;;0.20;;
13704;SDS011;6924;52.122;9.952;2023-04-01T11:49:21;0.63;;;0.37;;
13704;SDS011;6924;52.122;9.952;2023-04-01T11:52:12;0.53;;;0.13;;
13704;SDS011;6924;52.122;9.952;2023-04-01T11:54:51;0.20;;;0.20;;
13704;SDS011;6924;52.122;9.952;2023-04-01T11:57:35;1.80;;;0.20;;
13704;SDS011;6924;52.122;9.952;2023-04-01T12:00:14;0.10;;;0.10;;
13704;SDS011;6924;52.122;9.952;2023-04-01T12:03:00;0.00;;;0.00;;
13704;SDS011;6924;52.122;9.952;2023-04-01T12:05:41;0.20;;;0.20;;
13704;SDS011;6924;52.122;9.952;2023-04-01T12:08:23;0.20;;;0.20;;
13704;SDS011;6924;52.122;9.952;2023-04-01T12:10:59;1.17;;;0.20;;
13704;SDS011;6924;52.122;9.952;2023-04-01T12:13:32;0.47;;;0.40;;
13704;SDS011;6924;52.122;9.952;2023-04-01T12:16:18;0.70;;;0.20;;
13704;SDS011;6924;52.122;9.952;2023-04-01T12:18:53;0.33;;;0.27;;
13704;SDS011;6924;52.122;9.952;2023-04-01T12:21:25;1.60;;;0.47;;
13704;SDS011;6924;52.122;9.952;2023-04-01T12:24:03;0.33;;;0.30;;
13704;SDS011;6924;52.122;9.952;2023-04-01T12:26:56;0.20;;;0.20;;
13704;SDS011;6924;52.122;9.952;2023-04-01T12:29:42;0.20;;;0.20;;
13704;SDS011;6924;52.122;9.952;2023-04-01T12:32:20;0.87;;;0.50;;
13704;SDS011;6924;52.122;9.952;2023-04-01T12:35:02;0.67;;;0.60;;
13704;SDS011;6924;52.122;9.952;2023-04-01T12:37:41;0.13;;;0.13;;
13704;SDS011;6924;52.122;9.952;2023-04-01T12:46:22;0.17;;;0.17;;
13704;SDS011;6924;52.122;9.952;2023-04-01T12:49:16;2.50;;;0.20;;
13704;SDS011;6924;52.122;9.952;2023-04-01T12:51:57;0.23;;;0.10;;
13704;SDS011;6924;52.122;9.952;2023-04-01T12:58:06;0.40;;;0.20;;
13704;SDS011;6924;52.122;9.952;2023-04-01T13:04:06;0.20;;;0.20;;
13704;SDS011;6924;52.122;9.952;2023-04-01T13:06:52;0.60;;;0.37;;
13704;SDS011;6924;52.122;9.952;2023-04-01T13:09:37;0.60;;;0.30;;
13704;SDS011;6924;52.122;9.952;2023-04-01T13:15:09;0.10;;;0.10;;
13704;SDS011;6924;52.122;9.952;2023-04-01T13:17:48;0.63;;;0.20;;
13704;SDS011;6924;52.122;9.952;2023-04-01T13:20:22;0.30;;;0.30;;
13704;SDS011;6924;52.122;9.952;2023-04-01T13:23:00;0.50;;;0.33;;
13704;SDS011;6924;52.122;9.952;2023-04-01T13:25:35;0.63;;;0.10;;
13704;SDS011;6924;52.122;9.952;2023-04-01T13:28:06;0.50;;;0.30;;
13704;SDS011;6924;52.122;9.952;2023-04-01T13:30:39;0.43;;;0.20;;
13704;SDS011;6924;52.122;9.952;2023-04-01T13:33:15;0.10;;;0.10;;
13704;SDS011;6924;52.122;9.952;2023-04-01T13:35:48;0.20;;;0.10;;
13704;SDS011;6924;52.122;9.952;2023-04-01T13:38:36;0.40;;;0.40;;
13704;SDS011;6924;52.122;9.952;2023-04-01T13:41:35;2.60;;;0.30;;
13704;SDS011;6924;52.122;9.952;2023-04-01T13:44:15;1.07;;;0.30;;
13704;SDS011;6924;52.122;9.952;2023-04-01T13:46:52;0.73;;;0.40;;
13704;SDS011;6924;52.122;9.952;2023-04-01T13:49:32;0.70;;;0.67;;
13704;SDS011;6924;52.122;9.952;2023-04-01T13:52:31;0.80;;;0.50;;
13704;SDS011;6924;52.122;9.952;2023-04-01T13:55:19;0.90;;;0.40;;
13704;SDS011;6924;52.122;9.952;2023-04-01T13:57:59;0.83;;;0.40;;
13704;SDS011;6924;52.122;9.952;2023-04-01T14:00:45;2.57;;;0.50;;
13704;SDS011;6924;52.122;9.952;2023-04-01T14:03:28;1.90;;;0.30;;
13704;SDS011;6924;52.122;9.952;2023-04-01T14:06:18;0.30;;;0.20;;
13704;SDS011;6924;52.122;9.952;2023-04-01T14:09:03;1.27;;;0.93;;
13704;SDS011;6924;52.122;9.952;2023-04-01T14:11:50;3.00;;;0.43;;
13704;SDS011;6924;52.122;9.952;2023-04-01T14:14:27;0.30;;;0.30;;
13704;SDS011;6924;52.122;9.952;2023-04-01T14:19:56;0.40;;;0.20;;
13704;SDS011;6924;52.122;9.952;2023-04-01T14:22:42;0.27;;;0.27;;
13704;SDS011;6924;52.122;9.952;2023-04-01T14:25:25;0.97;;;0.30;;
13704;SDS011;6924;52.122;9.952;2023-04-01T14:28:10;0.60;;;0.40;;
13704;SDS011;6924;52.122;9.952;2023-04-01T14:30:52;0.63;;;0.40;;
13704;SDS011;6924;52.122;9.952;2023-04-01T14:33:38;0.33;;;0.33;;
13704;SDS011;6924;52.122;9.952;2023-04-01T14:36:23;0.27;;;0.27;;
13704;SDS011;6924;52.122;9.952;2023-04-01T14:39:11;0.60;;;0.47;;
13704;SDS011;6924;52.122;9.952;2023-04-01T14:41:48;0.73;;;0.30;;
13704;SDS011;6924;52.122;9.952;2023-04-01T14:44:33;0.90;;;0.27;;
13704;SDS011;6924;52.122;9.952;2023-04-01T14:47:22;0.30;;;0.20;;
13704;SDS011;6924;52.122;9.952;2023-04-01T14:50:09;0.30;;;0.30;;
13704;SDS011;6924;52.122;9.952;2023-04-01T14:52:40;0.27;;;0.27;;
13704;SDS011;6924;52.122;9.952;2023-04-01T14:55:19;0.33;;;0.27;;
13704;SDS011;6924;52.122;9.952;2023-04-01T15:00:48;0.60;;;0.30;;
13704;SDS011;6924;52.122;9.952;2023-04-01T15:03:22;5.10;;;0.30;;
13704;SDS011;6924;52.122;9.952;2023-04-01T15:05:56;0.30;;;0.30;;
13704;SDS011;6924;52.122;9.952;2023-04-01T15:08:41;0.80;;;0.67;;
13704;SDS011;6924;52.122;9.952;2023-04-01T15:11:33;0.30;;;0.30;;
13704;SDS011;6924;52.122;9.952;2023-04-01T15:14:16;0.70;;;0.60;;
13704;SDS011;6924;52.122;9.952;2023-04-01T15:17:12;3.20;;;3.00;;
13704;SDS011;6924;52.122;9.952;2023-04-01T15:19:54;4.57;;;4.17;;
13704;SDS011;6924;52.122;9.952;2023-04-01T15:22:48;4.50;;;4.20;;
13704;SDS011;6924;52.122;9.952;2023-04-01T15:25:31;2.43;;;2.33;;
13704;SDS011;6924;52.122;9.952;2023-04-01T15:28:07;1.20;;;1.10;;
13704;SDS011;6924;52.122;9.952;2023-04-01T15:30:44;1.10;;;1.10;;
13704;SDS011;6924;52.122;9.952;2023-04-01T15:33:30;0.87;;;0.80;;
13704;SDS011;6924;52.122;9.952;2023-04-01T15:36:10;0.90;;;0.90;;
13704;SDS011;6924;52.122;9.952;2023-04-01T15:38:50;0.90;;;0.90;;
13704;SDS011;6924;52.122;9.952;2023-04-01T15:41:23;0.77;;;0.77;;
13704;SDS011;6924;52.122;9.952;2023-04-01T15:43:53;0.80;;;0.80;;
13704;SDS011;6924;52.122;9.952;2023-04-01T15:49:14;0.90;;;0.90;;
13704;SDS011;6924;52.122;9.952;2023-04-01T15:51:52;0.93;;;0.93;;
13704;SDS011;6924;52.122;9.952;2023-04-01T15:54:25;1.93;;;1.07;;
13704;SDS011;6924;52.122;9.952;2023-04-01T15:57:08;1.17;;;1.10;;
13704;SDS011;6924;52.122;9.952;2023-04-01T16:02:33;2.00;;;1.90;;
13704;SDS011;6924;52.122;9.952;2023-04-01T16:05:08;4.13;;;2.40;;
13704;SDS011;6924;52.122;9.952;2023-04-01T16:07:48;2.63;;;2.43;;
13704;SDS011;6924;52.122;9.952;2023-04-01T16:10:29;2.67;;;2.47;;
13704;SDS011;6924;52.122;9.952;2023-04-01T16:13:17;3.77;;;2.50;;
13704;SDS011;6924;52.122;9.952;2023-04-01T16:16:07;2.57;;;2.37;;
13704;SDS011;6924;52.122;9.952;2023-04-01T16:18:46;1.70;;;1.60;;
13704;SDS011;6924;52.122;9.952;2023-04-01T16:21:34;2.07;;;1.97;;
13704;SDS011;6924;52.122;9.952;2023-04-01T16:24:04;2.80;;;2.60;;
13704;SDS011;6924;52.122;9.952;2023-04-01T16:26:39;2.57;;;2.37;;
13704;SDS011;6924;52.122;9.952;2023-04-01T16:29:16;2.83;;;2.50;;
13704;SDS011;6924;52.122;9.952;2023-04-01T16:31:51;2.57;;;2.37;;
13704;SDS011;6924;52.122;9.952;2023-04-01T16:34:26;2.97;;;2.77;;
13704;SDS011;6924;52.122;9.952;2023-04-01T16:37:00;2.80;;;2.60;;
13704;SDS011;6924;52.122;9.952;2023-04-01T16:39:33;2.37;;;2.23;;
13704;SDS011;6924;52.122;9.952;2023-04-01T16:42:20;2.20;;;2.00;;
13704;SDS011;6924;52.122;9.952;2023-04-01T16:44:59;2.07;;;1.97;;
13704;SDS011;6924;52.122;9.952;2023-04-01T16:47:29;2.17;;;2.03;;
13704;SDS011;6924;52.122;9.952;2023-04-01T16:49:58;1.40;;;1.30;;
13704;SDS011;6924;52.122;9.952;2023-04-01T16:52:40;1.80;;;1.70;;
13704;SDS011;6924;52.122;9.952;2023-04-01T16:55:15;1.47;;;1.37;;
13704;SDS011;6924;52.122;9.952;2023-04-01T16:57:45;1.60;;;1.30;;
13704;SDS011;6924;52.122;9.952;2023-04-01T17:00:17;2.10;;;1.37;;
13704;SDS011;6924;52.122;9.952;2023-04-01T17:02:54;1.10;;;1.10;;
13704;SDS011;6924;52.122;9.952;2023-04-01T17:05:36;1.03;;;0.93;;
13704;SDS011;6924;52.122;9.952;2023-04-01T17:08:14;1.30;;;1.20;;
13704;SDS011;6924;52.122;9.952;2023-04-01T17:10:50;5.13;;;1.33;;
13704;SDS011;6924;52.122;9.952;2023-04-01T17:13:30;1.40;;;1.30;;
13704;SDS011;6924;52.122;9.952;2023-04-01T17:16:04;1.73;;;1.63;;
13704;SDS011;6924;52.122;9.952;2023-04-01T17:18:44;1.90;;;1.63;;